^^
Your Local Weather - Clay, NY Station Historical Data
Daily Summary for May 16, 2017 Units:  Metric    English   Both
« Previous Day
Next Day »
Daily Weekly Monthly Yearly Custom
  High: Low: Average:
Temperature: 21.4 °C 6.1 °C 14.4 °C
Dew Point: 10.8 °C 4.6 °C 7.6 °C
Humidity: 92% 41% 66%
Wind Speed: 6.4km/h 0km/h 1.3km/h
Wind Gust: 11.3km/h - -
Wind- - WSW
Pressure: 1016.8 hPa 1011.4 hPa -
Precipitation: 0 mm    
Historical Graphs
 
 
Tabular Data for May 16, 2017
Time Temperature Dew Point Pressure Wind Wind Speed Wind Gust Humidity Rainfall Rate (Hourly) solar
00:05 10.8 °C 5.9 °C 1013.4 hPa Calm     72% 0 mm 0 W/m2
00:12 10.6 °C 5.8 °C 1013.8 hPa Calm     72% 0 mm 0 W/m2
00:18 10.6 °C 5.9 °C 1013.8 hPa Calm     73% 0 mm 0 W/m2
00:23 10.4 °C 5.8 °C 1013.8 hPa Calm     73% 0 mm 0 W/m2
00:29 10.2 °C 6.2 °C 1013.8 hPa Calm     76% 0 mm 0 W/m2
00:35 9.9 °C 6.3 °C 1013.8 hPa Calm     78% 0 mm 0 W/m2
00:42 9.7 °C 6.1 °C 1013.4 hPa Calm     78% 0 mm 0 W/m2
00:48 9.6 °C 5.9 °C 1013.4 hPa Calm     78% 0 mm 0 W/m2
00:53 9.4 °C 5.8 °C 1013.4 hPa Calm     78% 0 mm 0 W/m2
00:59 9.3 °C 5.8 °C 1013.8 hPa Calm     79% 0 mm 0 W/m2
01:05 9.2 °C 5.9 °C 1013.8 hPa Calm     80% 0 mm 0 W/m2
01:12 9 °C 5.7 °C 1013.4 hPa Calm     80% 0 mm 0 W/m2
01:18 8.8 °C 5.7 °C 1013.4 hPa Calm     81% 0 mm 0 W/m2
01:23 8.7 °C 5.8 °C 1013.4 hPa Calm     82% 0 mm 0 W/m2
01:29 8.5 °C 5.6 °C 1013.4 hPa Calm     82% 0 mm 0 W/m2
01:35 8.3 °C 5.4 °C 1013.4 hPa Calm     82% 0 mm 0 W/m2
01:42 8.1 °C 5.2 °C 1013.4 hPa Calm     82% 0 mm 0 W/m2
01:48 8.1 °C 5.6 °C 1013.8 hPa Calm     84% 0 mm 0 W/m2
01:53 8 °C 5.4 °C 1013.8 hPa Calm     84% 0 mm 0 W/m2
01:59 7.8 °C 5.3 °C 1013.4 hPa Calm     84% 0 mm 0 W/m2
02:05 7.7 °C 5.2 °C 1013.4 hPa Calm     84% 0 mm 0 W/m2
02:11 7.6 °C 5.2 °C 1013.8 hPa Calm     85% 0 mm 0 W/m2
02:18 7.6 °C 5.4 °C 1013.8 hPa Calm     86% 0 mm 0 W/m2
02:23 7.4 °C 5.3 °C 1013.8 hPa Calm     86% 0 mm 0 W/m2
02:29 7.4 °C 5.4 °C 1013.8 hPa Calm     87% 0 mm 0 W/m2
02:35 7.3 °C 5.3 °C 1013.8 hPa Calm     87% 0 mm 0 W/m2
02:42 7.2 °C 5.2 °C 1014.1 hPa Calm     87% 0 mm 0 W/m2
02:48 7.1 °C 5.3 °C 1014.4 hPa Calm     88% 0 mm 0 W/m2
02:53 7.1 °C 5.3 °C 1014.4 hPa Calm     88% 0 mm 0 W/m2
02:59 7.1 °C 5.2 °C 1014.4 hPa Calm     88% 0 mm 0 W/m2
03:05 6.9 °C 5.1 °C 1014.4 hPa Calm     88% 0 mm 0 W/m2
03:12 6.9 °C 5.3 °C 1014.4 hPa Calm     89% 0 mm 0 W/m2
03:18 6.8 °C 5.2 °C 1014.8 hPa Calm     89% 0 mm 0 W/m2
03:23 6.8 °C 5.1 °C 1014.8 hPa Calm     89% 0 mm 0 W/m2
03:29 6.7 °C 5 °C 1014.8 hPa Calm     89% 0 mm 0 W/m2
03:35 6.7 °C 5 °C 1015.1 hPa Calm     89% 0 mm 0 W/m2
03:42 6.8 °C 5.1 °C 1014.8 hPa Calm     89% 0 mm 0 W/m2
03:48 6.9 °C 5.4 °C 1014.8 hPa Calm     90% 0 mm 0 W/m2
03:55 7.1 °C 5.5 °C 1014.8 hPa Calm     90% 0 mm 0 W/m2
04:02 7.1 °C 5.5 °C 1014.8 hPa Calm     90% 0 mm 0 W/m2
04:08 6.9 °C 5.4 °C 1014.8 hPa Calm     90% 0 mm 0 W/m2
04:13 6.9 °C 5.4 °C 1014.8 hPa Calm     90% 0 mm 0 W/m2
04:19 6.9 °C 5.4 °C 1014.8 hPa Calm     90% 0 mm 0 W/m2
04:25 6.9 °C 5.4 °C 1014.8 hPa Calm     90% 0 mm 0 W/m2
04:31 6.8 °C 5.3 °C 1014.8 hPa Calm     90% 0 mm 0 W/m2
04:38 6.8 °C 5.3 °C 1014.8 hPa Calm     90% 0 mm 0 W/m2
04:45 6.7 °C 5.2 °C 1015.1 hPa Calm     90% 0 mm 0 W/m2
04:52 6.6 °C 5.1 °C 1014.8 hPa Calm     90% 0 mm 0 W/m2
04:58 6.5 °C 5 °C 1014.8 hPa Calm     90% 0 mm 0 W/m2
05:03 6.4 °C 4.9 °C 1015.1 hPa Calm     90% 0 mm 0 W/m2
05:09 6.4 °C 4.9 °C 1015.1 hPa Calm     90% 0 mm 0 W/m2
05:15 6.3 °C 4.8 °C 1015.1 hPa Calm     90% 0 mm 0 W/m2
05:21 6.2 °C 4.7 °C 1015.1 hPa Calm     90% 0 mm 0 W/m2
05:28 6.1 °C 4.6 °C 1015.5 hPa Calm     90% 0 mm 0 W/m2
05:33 6.1 °C 4.6 °C 1015.1 hPa Calm     90% 0 mm 0 W/m2
05:39 6.2 °C 4.8 °C 1015.1 hPa Calm     91% 0 mm 5 W/m2
05:45 6.3 °C 4.9 °C 1015.5 hPa Calm     91% 0 mm 7 W/m2
05:52 6.3 °C 4.9 °C 1015.5 hPa Calm     91% 0 mm 11 W/m2
05:58 6.2 °C 4.9 °C 1015.5 hPa Calm     91% 0 mm 14 W/m2
06:03 6.1 °C 4.8 °C 1015.1 hPa Calm     91% 0 mm 18 W/m2
06:09 6.1 °C 4.7 °C 1015.1 hPa Calm     91% 0 mm 23 W/m2
06:15 6.1 °C 4.7 °C 1015.1 hPa Calm     91% 0 mm 30 W/m2
06:23 6.2 °C 4.8 °C 1015.1 hPa Calm     91% 0 mm 39 W/m2
06:29 6.4 °C 5.2 °C 1015.5 hPa Calm     92% 0 mm 109 W/m2
06:35 7.2 °C 5.9 °C 1015.5 hPa Calm     92% 0 mm 127 W/m2
06:42 7.6 °C 6.3 °C 1015.5 hPa Calm     92% 0 mm 156 W/m2
06:48 8.1 °C 6.9 °C 1015.5 hPa Calm     92% 0 mm 162 W/m2
06:53 8.4 °C 7.2 °C 1015.5 hPa Calm     92% 0 mm 176 W/m2
06:59 8.8 °C 7.6 °C 1015.8 hPa Calm     92% 0 mm 139 W/m2
07:05 9.2 °C 7.8 °C 1015.8 hPa Calm     91% 0 mm 181 W/m2
07:11 9.6 °C 7.9 °C 1015.8 hPa Calm     89% 0 mm 188 W/m2
07:18 9.9 °C 7.7 °C 1016.1 hPa Calm   3.2 km/h 86% 0 mm 188 W/m2
07:23 10.2 °C 7.2 °C 1016.1 hPa Calm   3.2 km/h 82% 0 mm 199 W/m2
07:29 10.5 °C 7 °C 1016.5 hPa Calm   3.2 km/h 79% 0 mm 223 W/m2
07:35 10.8 °C 7.2 °C 1016.5 hPa Calm   3.2 km/h 78% 0 mm 253 W/m2
07:42 11.1 °C 7.1 °C 1016.5 hPa Calm   4.8 km/h 76% 0 mm 278 W/m2
07:48 11.3 °C 7.1 °C 1016.5 hPa Calm   4.8 km/h 75% 0 mm 279 W/m2
07:53 11.4 °C 6.9 °C 1016.5 hPa SW 1.6 km/h 3.2 km/h 74% 0 mm 301 W/m2
07:59 11.7 °C 7 °C 1016.5 hPa Calm     73% 0 mm 343 W/m2
08:05 11.9 °C 7.1 °C 1016.5 hPa Calm     72% 0 mm 325 W/m2
08:12 12.2 °C 7.3 °C 1016.5 hPa Calm     72% 0 mm 294 W/m2
08:18 12.4 °C 7.1 °C 1016.5 hPa Calm   3.2 km/h 70% 0 mm 320 W/m2
08:23 12.5 °C 6.9 °C 1016.5 hPa WSW 1.6 km/h 1.6 km/h 69% 0 mm 364 W/m2
08:29 12.7 °C 7.1 °C 1016.5 hPa WSW 1.6 km/h 3.2 km/h 69% 0 mm 376 W/m2
08:35 12.7 °C 7.1 °C 1016.5 hPa SW 3.2 km/h 9.7 km/h 69% 0 mm 376 W/m2
08:41 12.8 °C 7.1 °C 1016.5 hPa WSW 3.2 km/h 6.4 km/h 68% 0 mm 411 W/m2
08:48 13 °C 7.2 °C 1016.5 hPa WSW 3.2 km/h 6.4 km/h 68% 0 mm 454 W/m2
08:53 13.3 °C 7.3 °C 1016.8 hPa WSW 1.6 km/h 4.8 km/h 67% 0 mm 466 W/m2
08:59 13.7 °C 7.9 °C 1016.8 hPa West 1.6 km/h 4.8 km/h 68% 0 mm 497 W/m2
09:05 13.9 °C 7.9 °C 1016.8 hPa NW 1.6 km/h 4.8 km/h 67% 0 mm 513 W/m2
09:12 14.3 °C 7.6 °C 1016.8 hPa WSW 1.6 km/h 3.2 km/h 64% 0 mm 540 W/m2
09:18 14.4 °C 7.7 °C 1016.5 hPa SW 1.6 km/h 6.4 km/h 64% 0 mm 566 W/m2
09:23 14.4 °C 7.7 °C 1016.5 hPa SSW 4.8 km/h 4.8 km/h 64% 0 mm 587 W/m2
09:29 14.6 °C 8.3 °C 1016.5 hPa South 3.2 km/h 3.2 km/h 66% 0 mm 545 W/m2
09:35 15.1 °C 7.8 °C 1016.5 hPa SSW 1.6 km/h 8 km/h 62% 0 mm 617 W/m2
09:42 15.2 °C 8.2 °C 1016.5 hPa WSW 1.6 km/h 1.6 km/h 63% 0 mm 663 W/m2
09:48 15.6 °C 8.1 °C 1016.5 hPa SSW 1.6 km/h 4.8 km/h 61% 0 mm 650 W/m2
09:53 15.6 °C 8.3 °C 1016.5 hPa SW 3.2 km/h 3.2 km/h 62% 0 mm 598 W/m2
09:59 16.2 °C 8.4 °C 1016.1 hPa WSW 1.6 km/h 1.6 km/h 60% 0 mm 642 W/m2
10:05 16.1 °C 7.8 °C 1016.1 hPa SSW 1.6 km/h 3.2 km/h 58% 0 mm 714 W/m2
10:12 16.3 °C 8.2 °C 1016.5 hPa SSW 1.6 km/h 1.6 km/h 59% 0 mm 722 W/m2
10:18 16.7 °C 8.9 °C 1016.5 hPa Calm   4.8 km/h 60% 0 mm 715 W/m2
10:23 16.6 °C 8.1 °C 1016.1 hPa SW 1.6 km/h 1.6 km/h 57% 0 mm 765 W/m2
10:29 16.9 °C 10.1 °C 1016.1 hPa Calm     64% 0 mm 840 W/m2
10:35 17.5 °C 8.9 °C 1016.1 hPa SW 1.6 km/h 3.2 km/h 57% 0 mm 854 W/m2
10:41 17.4 °C 8.3 °C 1016.1 hPa SW 1.6 km/h 1.6 km/h 55% 0 mm 476 W/m2
10:48 17.3 °C 8.2 °C 1016.1 hPa SW 1.6 km/h 1.6 km/h 55% 0 mm 619 W/m2
10:53 17.2 °C 8.4 °C 1016.1 hPa SW 1.6 km/h 3.2 km/h 56% 0 mm 459 W/m2
10:59 16.8 °C 7.4 °C 1016.1 hPa WSW 3.2 km/h 3.2 km/h 54% 0 mm 410 W/m2
11:05 16.9 °C 8.6 °C 1016.1 hPa NNE 1.6 km/h 3.2 km/h 58% 0 mm 443 W/m2
11:11 17.3 °C 7.4 °C 1016.1 hPa Calm     52% 0 mm 492 W/m2
11:18 17.3 °C 7.9 °C 1016.1 hPa Calm     54% 0 mm 519 W/m2
11:23 17.6 °C 8.9 °C 1015.8 hPa Calm   4.8 km/h 57% 0 mm 566 W/m2
11:29 17.7 °C 9.1 °C 1015.8 hPa SW 1.6 km/h 4.8 km/h 57% 0 mm 594 W/m2
11:35 17.9 °C 8.4 °C 1015.8 hPa SW 1.6 km/h 4.8 km/h 54% 0 mm 557 W/m2
11:42 17.7 °C 8.8 °C 1015.8 hPa South 1.6 km/h 3.2 km/h 56% 0 mm 580 W/m2
11:48 18.1 °C 9.2 °C 1016.1 hPa WSW 3.2 km/h 6.4 km/h 56% 0 mm 830 W/m2
11:53 18.3 °C 7.9 °C 1016.1 hPa WSW 1.6 km/h 3.2 km/h 51% 0 mm 791 W/m2
11:59 18.3 °C 8.6 °C 1015.8 hPa SSW 3.2 km/h 3.2 km/h 53% 0 mm 867 W/m2
12:05 18.8 °C 9.6 °C 1016.1 hPa WSW 3.2 km/h 11.3 km/h 55% 0 mm 847 W/m2
12:12 18.8 °C 9 °C 1016.1 hPa WSW 3.2 km/h 3.2 km/h 53% 0 mm 986 W/m2
12:18 19.2 °C 9.9 °C 1016.1 hPa NW 1.6 km/h 3.2 km/h 55% 0 mm 775 W/m2
12:23 19.3 °C 8.3 °C 1016.1 hPa WSW 1.6 km/h 6.4 km/h 49% 0 mm 898 W/m2
12:29 19.3 °C 8.9 °C 1016.5 hPa WSW 3.2 km/h 3.2 km/h 51% 0 mm 953 W/m2
12:35 19.7 °C 9.3 °C 1016.1 hPa WSW 3.2 km/h 6.4 km/h 51% 0 mm 717 W/m2
12:42 19.7 °C 8.7 °C 1016.1 hPa SW 3.2 km/h 4.8 km/h 49% 0 mm 909 W/m2
12:48 19.8 °C 10.8 °C 1016.5 hPa SW 3.2 km/h 8 km/h 56% 0 mm 772 W/m2
12:53 19.8 °C 9.9 °C 1016.5 hPa SW 3.2 km/h 4.8 km/h 53% 0 mm 555 W/m2
12:59 19.3 °C 9.2 °C 1016.5 hPa West 4.8 km/h 4.8 km/h 52% 0 mm 584 W/m2
13:05 19.4 °C 8.4 °C 1016.5 hPa WSW 4.8 km/h 4.8 km/h 49% 0 mm 596 W/m2
13:11 19.4 °C 8.4 °C 1016.5 hPa WNW 3.2 km/h 3.2 km/h 49% 0 mm 606 W/m2
13:18 19.6 °C 9.8 °C 1016.5 hPa NW 3.2 km/h 3.2 km/h 53% 0 mm 431 W/m2
13:23 19.3 °C 7.7 °C 1016.5 hPa NW 3.2 km/h 4.8 km/h 47% 0 mm 524 W/m2
13:29 19.5 °C 9.4 °C 1016.1 hPa NW 1.6 km/h 1.6 km/h 52% 0 mm 652 W/m2
13:35 19.7 °C 8.3 °C 1016.1 hPa WSW 3.2 km/h 4.8 km/h 48% 0 mm 617 W/m2
13:42 19.4 °C 8.1 °C 1015.8 hPa WNW 3.2 km/h 4.8 km/h 48% 0 mm 612 W/m2
13:48 19.6 °C 8.9 °C 1015.8 hPa WNW 3.2 km/h 4.8 km/h 50% 0 mm 626 W/m2
13:53 19.6 °C 9.2 °C 1015.8 hPa NNW 3.2 km/h 8 km/h 51% 0 mm 541 W/m2
13:59 19.7 °C 10.1 °C 1015.8 hPa SW 3.2 km/h 4.8 km/h 54% 0 mm 802 W/m2
14:05 19.8 °C 9.4 °C 1015.5 hPa SSW 4.8 km/h 4.8 km/h 51% 0 mm 733 W/m2
14:12 19.7 °C 9.3 °C 1015.5 hPa SSW 4.8 km/h 6.4 km/h 51% 0 mm 471 W/m2
14:18 19.6 °C 8.3 °C 1015.5 hPa WNW 3.2 km/h 6.4 km/h 48% 0 mm 638 W/m2
14:23 19.9 °C 7.9 °C 1015.5 hPa WSW 3.2 km/h 8 km/h 46% 0 mm 580 W/m2
14:29 19.7 °C 7.7 °C 1015.5 hPa WSW 4.8 km/h 4.8 km/h 46% 0 mm 478 W/m2
14:35 19.6 °C 9.5 °C 1015.5 hPa WSW 4.8 km/h 6.4 km/h 52% 0 mm 480 W/m2
14:41 19.7 °C 8.7 °C 1015.5 hPa SW 3.2 km/h 6.4 km/h 49% 0 mm 396 W/m2
14:48 19.8 °C 10.2 °C 1015.5 hPa SW 1.6 km/h 6.4 km/h 54% 0 mm 432 W/m2
14:53 20 °C 8.7 °C 1015.1 hPa SW 1.6 km/h 4.8 km/h 48% 0 mm 499 W/m2
14:59 19.8 °C 8.2 °C 1014.8 hPa WSW 3.2 km/h 3.2 km/h 47% 0 mm 499 W/m2
15:05 20.1 °C 10.7 °C 1014.8 hPa West 1.6 km/h 3.2 km/h 55% 0 mm 478 W/m2
15:12 20.2 °C 9.1 °C 1014.8 hPa WNW 1.6 km/h 3.2 km/h 49% 0 mm 543 W/m2
15:18 20.1 °C 10.2 °C 1014.8 hPa NW 1.6 km/h 3.2 km/h 53% 0 mm 675 W/m2
15:23 20.3 °C 8.3 °C 1014.8 hPa WNW 1.6 km/h 6.4 km/h 46% 0 mm 800 W/m2
15:29 20.4 °C 8.4 °C 1014.8 hPa SW 1.6 km/h 1.6 km/h 46% 0 mm 448 W/m2
15:35 20.3 °C 8.3 °C 1014.4 hPa SSW 1.6 km/h 8 km/h 46% 0 mm 469 W/m2
15:41 20.9 °C 8.5 °C 1014.1 hPa SW 3.2 km/h 8 km/h 45% 0 mm 578 W/m2
15:48 21.2 °C 9.1 °C 1014.1 hPa WSW 4.8 km/h 8 km/h 46% 0 mm 573 W/m2
15:53 20.7 °C 8.3 °C 1014.1 hPa West 3.2 km/h 8 km/h 45% 0 mm 350 W/m2
15:59 20.7 °C 9.3 °C 1014.1 hPa NNW 3.2 km/h 3.2 km/h 48% 0 mm 561 W/m2
16:05 20.7 °C 8.3 °C 1014.1 hPa WNW 1.6 km/h 8 km/h 45% 0 mm 457 W/m2
16:12 20.6 °C 8.6 °C 1014.1 hPa WNW 3.2 km/h 3.2 km/h 46% 0 mm 320 W/m2
16:18 20.4 °C 9.1 °C 1014.1 hPa West 3.2 km/h 8 km/h 48% 0 mm 905 W/m2
16:23 20.9 °C 8.6 °C 1014.1 hPa SW 4.8 km/h 4.8 km/h 45% 0 mm 436 W/m2
16:29 20.9 °C 9.2 °C 1013.8 hPa NW 3.2 km/h 4.8 km/h 47% 0 mm 654 W/m2
16:35 21.4 °C 8.9 °C 1013.8 hPa SW 3.2 km/h 4.8 km/h 45% 0 mm 649 W/m2
16:41 21.1 °C 8 °C 1013.8 hPa South 6.4 km/h 6.4 km/h 43% 0 mm 603 W/m2
16:48 21.2 °C 9.8 °C 1013.8 hPa WSW 3.2 km/h 6.4 km/h 48% 0 mm 490 W/m2
16:53 20.9 °C 8.5 °C 1013.8 hPa WSW 3.2 km/h 3.2 km/h 45% 0 mm 687 W/m2
16:59 20.9 °C 8.8 °C 1013.4 hPa SSE 4.8 km/h 8 km/h 46% 0 mm 424 W/m2
17:05 20.7 °C 8 °C 1013.1 hPa SW 4.8 km/h 8 km/h 44% 0 mm 128 W/m2
17:11 20.7 °C 8.6 °C 1013.1 hPa West 1.6 km/h 3.2 km/h 46% 0 mm 84 W/m2
17:18 20.7 °C 8 °C 1013.1 hPa West 1.6 km/h 4.8 km/h 44% 0 mm 56 W/m2
17:23 20.6 °C 8.2 °C 1013.1 hPa SW 3.2 km/h 4.8 km/h 45% 0 mm 107 W/m2
17:29 20.7 °C 8.6 °C 1013.1 hPa WSW 4.8 km/h 9.7 km/h 46% 0 mm 74 W/m2
17:35 20.3 °C 7.9 °C 1012.8 hPa SW 4.8 km/h 11.3 km/h 45% 0 mm 86 W/m2
17:42 20.3 °C 7.6 °C 1012.8 hPa SSW 4.8 km/h 6.4 km/h 44% 0 mm 54 W/m2
17:48 20.1 °C 7.1 °C 1012.8 hPa WSW 3.2 km/h 9.7 km/h 43% 0 mm 146 W/m2
17:53 19.9 °C 7.9 °C 1012.8 hPa SSE 3.2 km/h 3.2 km/h 46% 0 mm 158 W/m2
17:59 20 °C 7.4 °C 1012.4 hPa SSW 3.2 km/h 3.2 km/h 44% 0 mm 183 W/m2
18:05 20.1 °C 7.1 °C 1012.8 hPa SSW 4.8 km/h 6.4 km/h 43% 0 mm 142 W/m2
18:12 20.1 °C 6.4 °C 1012.8 hPa South 3.2 km/h 8 km/h 41% 0 mm 167 W/m2
18:18 20.1 °C 7.7 °C 1012.8 hPa WSW 3.2 km/h 9.7 km/h 45% 0 mm 113 W/m2
18:23 20.1 °C 6.7 °C 1012.8 hPa SW 3.2 km/h 6.4 km/h 42% 0 mm 74 W/m2
18:29 19.8 °C 6.6 °C 1012.8 hPa SW 3.2 km/h 3.2 km/h 42% 0 mm 76 W/m2
18:35 19.7 °C 6.7 °C 1012.4 hPa SSW 3.2 km/h 6.4 km/h 43% 0 mm 118 W/m2
18:41 19.8 °C 6.8 °C 1012.4 hPa SW 3.2 km/h 4.8 km/h 43% 0 mm 141 W/m2
18:48 20.1 °C 6.7 °C 1012.4 hPa SSE 4.8 km/h 8 km/h 42% 0 mm 121 W/m2
18:53 20.1 °C 6.7 °C 1012.4 hPa SSW 3.2 km/h 6.4 km/h 42% 0 mm 79 W/m2
18:59 19.9 °C 6.2 °C 1012.4 hPa South 3.2 km/h 8 km/h 41% 0 mm 84 W/m2
19:05 19.7 °C 6.4 °C 1012.4 hPa SSW 3.2 km/h 8 km/h 42% 0 mm 39 W/m2
19:11 19.6 °C 6.6 °C 1012.4 hPa SSW 1.6 km/h 3.2 km/h 43% 0 mm 44 W/m2
19:18 19.4 °C 6.9 °C 1012.1 hPa SSW 1.6 km/h 3.2 km/h 44% 0 mm 54 W/m2
19:23 19.4 °C 6.8 °C 1012.1 hPa Calm     44% 0 mm 51 W/m2
19:29 19.3 °C 6.8 °C 1012.4 hPa Calm     44% 0 mm 40 W/m2
19:35 19.3 °C 6.7 °C 1012.4 hPa Calm     44% 0 mm 32 W/m2
19:42 19.2 °C 8.2 °C 1012.4 hPa Calm     49% 0 mm 21 W/m2
19:48 19.1 °C 7.5 °C 1012.4 hPa Calm     47% 0 mm 21 W/m2
19:53 18.9 °C 9.4 °C 1012.4 hPa Calm     54% 0 mm 18 W/m2
19:59 18.7 °C 9.8 °C 1012.4 hPa Calm     56% 0 mm 16 W/m2
20:05 18.4 °C 8.9 °C 1012.1 hPa Calm     54% 0 mm 12 W/m2
20:11 18.2 °C 9.2 °C 1012.1 hPa Calm     56% 0 mm 7 W/m2
20:18 17.9 °C 9.2 °C 1012.1 hPa Calm     57% 0 mm 0 W/m2
20:23 17.6 °C 8.9 °C 1012.1 hPa Calm     57% 0 mm 0 W/m2
20:29 17.2 °C 9.3 °C 1012.1 hPa Calm     60% 0 mm 0 W/m2
20:35 16.8 °C 8.4 °C 1012.4 hPa Calm     58% 0 mm 0 W/m2
20:41 16.4 °C 8.3 °C 1012.4 hPa Calm     59% 0 mm 0 W/m2
20:48 16.1 °C 9.1 °C 1012.4 hPa Calm     63% 0 mm 0 W/m2
20:53 15.8 °C 9.5 °C 1012.4 hPa Calm     66% 0 mm 0 W/m2
20:59 15.6 °C 9.7 °C 1012.4 hPa Calm     68% 0 mm 0 W/m2
21:05 15.2 °C 9.1 °C 1012.1 hPa Calm     67% 0 mm 0 W/m2
21:11 15 °C 8.9 °C 1012.4 hPa Calm     67% 0 mm 0 W/m2
21:18 14.8 °C 9 °C 1012.4 hPa Calm     68% 0 mm 0 W/m2
21:23 14.7 °C 9.3 °C 1012.4 hPa Calm     70% 0 mm 0 W/m2
21:29 14.6 °C 9.4 °C 1012.8 hPa Calm     71% 0 mm 0 W/m2
21:35 14.4 °C 8.8 °C 1012.8 hPa Calm     69% 0 mm 0 W/m2
21:42 14.4 °C 9.7 °C 1012.8 hPa Calm     73% 0 mm 0 W/m2
21:48 14.4 °C 10 °C 1012.8 hPa Calm     75% 0 mm 0 W/m2
21:53 14.4 °C 9.8 °C 1012.8 hPa Calm     74% 0 mm 0 W/m2
21:59 14.4 °C 10.1 °C 1012.8 hPa Calm     75% 0 mm 0 W/m2
22:05 14.4 °C 10.1 °C 1012.8 hPa Calm     75% 0 mm 0 W/m2
22:12 14.4 °C 9.4 °C 1012.4 hPa Calm     72% 0 mm 0 W/m2
22:18 14.3 °C 9.2 °C 1012.1 hPa Calm     71% 0 mm 0 W/m2
22:23 14.2 °C 9.2 °C 1012.1 hPa Calm     72% 0 mm 0 W/m2
22:29 14.1 °C 8.9 °C 1012.1 hPa Calm     71% 0 mm 0 W/m2
22:35 14.1 °C 8.9 °C 1012.1 hPa Calm     71% 0 mm 0 W/m2
22:41 14 °C 9.1 °C 1012.1 hPa Calm     72% 0 mm 0 W/m2
22:48 13.9 °C 8.7 °C 1012.1 hPa Calm     71% 0 mm 0 W/m2
22:53 13.8 °C 9 °C 1011.7 hPa Calm     73% 0 mm 0 W/m2
22:59 13.7 °C 8.6 °C 1011.7 hPa Calm     71% 0 mm 0 W/m2
23:05 14 °C 8.2 °C 1011.7 hPa Calm   1.6 km/h 68% 0 mm 0 W/m2
23:11 14.3 °C 8.3 °C 1011.7 hPa SE 1.6 km/h 1.6 km/h 67% 0 mm 0 W/m2
23:18 14.3 °C 8.5 °C 1011.7 hPa Calm   1.6 km/h 68% 0 mm 0 W/m2
23:23 14.2 °C 8.6 °C 1011.7 hPa Calm     69% 0 mm 0 W/m2
23:29 14 °C 8.4 °C 1011.7 hPa Calm     69% 0 mm 0 W/m2
23:35 13.8 °C 8.9 °C 1011.7 hPa Calm     72% 0 mm 0 W/m2
23:42 13.6 °C 8.7 °C 1011.7 hPa Calm     72% 0 mm 0 W/m2
23:48 13.4 °C 8.7 °C 1011.4 hPa Calm     73% 0 mm 0 W/m2
23:53 13.3 °C 8.9 °C 1011.4 hPa Calm     75% 0 mm 0 W/m2
23:59 13.1 °C 8.8 °C 1011.4 hPa Calm     75% 0 mm 0 W/m2
Country Meadow, Clay, NY, USA
Compliments of Weather Underground - 2 mb